Time;durP1;ratioP1;P1;durP2;ratioP2;P2;SDS_P1;SDS_P2;PMS_P1;PMS_P2;Temp;Humidity;BMP_temperature;BMP_pressure;BME280_temperature;BME280_humidity;BME280_pressure;Samples;Min_cycle;Max_cycle;Signal;HPM_P1;HPM_P2
2024/03/17 00:00:27;;;;;;;9.23;3.87;;;8.10;98.00;;;;;;5033034;28;20459;-66
2024/03/17 00:02:54;;;;;;;10.30;4.50;;;8.10;98.00;;;;;;5033340;28;20465;-66
2024/03/17 00:05:23;;;;;;;18.40;6.50;;;8.10;98.00;;;;;;5047752;28;20458;-66
2024/03/17 00:07:50;;;;;;;11.30;5.93;;;8.20;98.00;;;;;;5033280;28;20462;-66
2024/03/17 00:10:16;;;;;;;13.57;6.30;;;8.30;98.00;;;;;;5030868;28;20483;-66
2024/03/17 00:12:46;;;;;;;16.37;6.10;;;8.30;98.00;;;;;;5032159;28;20467;-66
2024/03/17 00:15:14;;;;;;;14.80;6.53;;;8.30;98.00;;;;;;5031969;28;20537;-66
2024/03/17 00:17:41;;;;;;;17.53;6.60;;;8.50;98.00;;;;;;5032139;28;20495;-66
2024/03/17 00:20:11;;;;;;;14.50;6.10;;;8.50;98.00;;;;;;5032000;28;20943;-66
2024/03/17 00:22:40;;;;;;;20.33;7.57;;;8.30;98.00;;;;;;5032081;28;20463;-66
2024/03/17 00:25:08;;;;;;;13.37;5.97;;;8.30;98.00;;;;;;5031869;28;20953;-66
2024/03/17 00:27:39;;;;;;;13.77;7.00;;;8.30;98.00;;;;;;5031905;28;20964;-66
2024/03/17 00:30:10;;;;;;;17.43;6.13;;;8.30;98.00;;;;;;5031940;28;20516;-66
2024/03/17 00:32:37;;;;;;;11.60;6.00;;;8.20;98.00;;;;;;5031410;28;20552;-66
2024/03/17 00:35:04;;;;;;;10.60;5.50;;;8.10;98.00;;;;;;5047250;28;20485;-66
2024/03/17 00:37:32;;;;;;;41.47;6.80;;;8.00;98.00;;;;;;5032253;28;20847;-66
2024/03/17 00:39:59;;;;;;;13.27;6.20;;;7.90;98.00;;;;;;5031694;28;20508;-66
2024/03/17 00:42:27;;;;;;;15.93;6.67;;;7.90;98.00;;;;;;5031316;28;20468;-66
2024/03/17 00:44:55;;;;;;;14.10;6.60;;;7.90;98.00;;;;;;5031260;28;20976;-66
2024/03/17 00:47:22;;;;;;;11.90;6.00;;;7.80;98.00;;;;;;5031557;28;20846;-66
2024/03/17 00:49:50;;;;;;;11.13;5.27;;;7.80;98.00;;;;;;5031562;28;20983;-67
2024/03/17 00:52:17;;;;;;;9.93;5.00;;;7.90;98.00;;;;;;5031431;28;20855;-66
2024/03/17 00:54:43;;;;;;;10.90;5.23;;;8.10;98.00;;;;;;5031447;28;20507;-66
2024/03/17 00:57:12;;;;;;;11.80;5.40;;;8.10;98.00;;;;;;5031439;28;20501;-66
2024/03/17 00:59:38;;;;;;;10.47;5.80;;;8.10;98.00;;;;;;5031221;28;20463;-66
2024/03/17 01:02:05;;;;;;;13.10;5.77;;;7.90;98.00;;;;;;5031637;28;21002;-66
2024/03/17 01:04:33;;;;;;;13.20;6.00;;;7.80;98.00;;;;;;5046933;28;20452;-66
2024/03/17 01:07:01;;;;;;;12.80;5.90;;;7.90;98.00;;;;;;5031324;28;20536;-67
2024/03/17 01:09:27;;;;;;;10.37;5.90;;;8.20;98.00;;;;;;5031645;28;20458;-66
2024/03/17 01:11:54;;;;;;;11.63;5.10;;;8.10;98.00;;;;;;5031357;28;20508;-66
2024/03/17 01:14:21;;;;;;;10.30;4.87;;;8.10;98.00;;;;;;5031316;28;20487;-66
2024/03/17 01:16:48;;;;;;;13.27;5.67;;;8.00;98.00;;;;;;5031089;28;20561;-66
2024/03/17 01:19:14;;;;;;;13.57;5.20;;;7.90;98.00;;;;;;5031083;28;20461;-66
2024/03/17 01:21:42;;;;;;;11.83;5.50;;;7.90;98.00;;;;;;5030598;28;20477;-66
2024/03/17 01:24:08;;;;;;;13.27;5.17;;;7.90;98.00;;;;;;5031062;28;20516;-66
2024/03/17 01:27:14;;;;;;;11.80;5.43;;;7.80;98.00;;;;;;5031211;28;20856;-66
2024/03/17 01:29:41;;;;;;;12.20;5.70;;;7.80;98.00;;;;;;5031006;28;21035;-66
2024/03/17 01:32:12;;;;;;;12.03;6.13;;;7.80;98.00;;;;;;5030787;28;20519;-66
2024/03/17 01:34:38;;;;;;;10.10;5.33;;;7.80;98.00;;;;;;5030169;28;20578;-66
2024/03/17 01:37:05;;;;;;;12.80;6.00;;;7.80;98.00;;;;;;5028752;28;20473;-66
2024/03/17 01:39:32;;;;;;;12.40;5.40;;;8.00;98.00;;;;;;5029996;28;20459;-66
2024/03/17 01:41:59;;;;;;;11.13;4.93;;;8.10;98.00;;;;;;5030488;28;20512;-66
2024/03/17 01:44:27;;;;;;;11.27;5.50;;;8.00;98.00;;;;;;5029793;28;20459;-66
2024/03/17 01:46:57;;;;;;;11.00;5.30;;;8.00;98.00;;;;;;5030545;28;20495;-66
2024/03/17 01:49:26;;;;;;;11.77;6.00;;;7.90;98.00;;;;;;5031063;28;20454;-66
2024/03/17 01:51:54;;;;;;;11.77;5.10;;;7.90;98.00;;;;;;5030563;28;20464;-66
2024/03/17 01:54:21;;;;;;;10.83;5.23;;;8.00;98.00;;;;;;5045695;28;20486;-66
2024/03/17 01:56:48;;;;;;;12.67;5.17;;;7.90;98.00;;;;;;5030519;28;20461;-66
2024/03/17 01:59:14;;;;;;;9.27;4.77;;;7.90;98.00;;;;;;5030776;28;20548;-66
2024/03/17 02:01:42;;;;;;;9.87;5.03;;;7.80;98.00;;;;;;5030713;28;20502;-66
2024/03/17 02:04:17;;;;;;;10.00;5.37;;;7.80;98.00;;;;;;5045808;28;20457;-66
2024/03/17 02:06:44;;;;;;;11.53;5.47;;;7.70;98.00;;;;;;5030665;28;20622;-66
2024/03/17 02:09:11;;;;;;;11.53;5.53;;;7.60;98.00;;;;;;5030657;28;20465;-66
2024/03/17 02:11:38;;;;;;;10.47;5.17;;;7.70;98.00;;;;;;5029289;28;20458;-66
2024/03/17 02:14:06;;;;;;;12.27;5.40;;;7.70;98.00;;;;;;5030599;28;20458;-66
2024/03/17 02:16:33;;;;;;;11.40;4.97;;;7.80;98.00;;;;;;5030828;28;20502;-66
2024/03/17 02:19:00;;;;;;;10.17;5.00;;;7.60;98.00;;;;;;5030587;28;20457;-66
2024/03/17 02:21:28;;;;;;;15.47;5.50;;;7.70;98.00;;;;;;5030425;28;20478;-66
2024/03/17 02:23:56;;;;;;;10.50;4.87;;;7.70;98.00;;;;;;5030457;28;20458;-66
2024/03/17 02:26:25;;;;;;;10.50;5.30;;;7.80;98.00;;;;;;5030393;28;20458;-66
2024/03/17 02:28:52;;;;;;;10.10;5.27;;;7.80;98.00;;;;;;5030599;28;20463;-66
2024/03/17 02:31:19;;;;;;;10.33;4.90;;;7.60;98.00;;;;;;5030015;28;20544;-66
2024/03/17 02:33:46;;;;;;;8.27;4.60;;;7.50;98.00;;;;;;5045687;28;20469;-66
2024/03/17 02:36:13;;;;;;;9.57;5.10;;;7.50;98.00;;;;;;5033663;28;20512;-66
2024/03/17 02:41:28;;;;;;;10.20;5.33;;;7.80;98.00;;;;;;5033950;28;20489;-66
2024/03/17 02:43:55;;;;;;;9.43;4.70;;;7.80;98.00;;;;;;5032949;28;20492;-66
2024/03/17 02:46:23;;;;;;;8.43;4.80;;;7.80;98.00;;;;;;5033975;28;20524;-66
2024/03/17 02:48:53;;;;;;;9.97;5.43;;;7.80;98.00;;;;;;5033741;28;20534;-66
2024/03/17 02:51:22;;;;;;;9.73;4.73;;;7.80;98.00;;;;;;5033981;28;20468;-66
2024/03/17 02:53:50;;;;;;;12.40;5.40;;;7.90;98.00;;;;;;5033987;28;20461;-66
2024/03/17 02:56:19;;;;;;;11.10;5.70;;;7.70;98.00;;;;;;5033224;28;20489;-66
2024/03/17 02:58:48;;;;;;;14.27;5.57;;;7.70;98.00;;;;;;5032563;28;20920;-66
2024/03/17 03:03:45;;;;;;;9.33;4.67;;;7.80;98.00;;;;;;5272634;22;20514;-66
2024/03/17 03:06:13;;;;;;;9.80;4.97;;;7.90;98.00;;;;;;5073398;28;20467;-66
2024/03/17 03:08:40;;;;;;;8.63;4.50;;;7.70;98.00;;;;;;5073271;28;20452;-66
2024/03/17 03:11:10;;;;;;;9.53;4.40;;;7.60;98.00;;;;;;5073269;28;20826;-66
2024/03/17 03:13:39;;;;;;;11.00;5.30;;;7.70;98.00;;;;;;5073381;28;20613;-66
2024/03/17 03:16:09;;;;;;;12.13;5.17;;;7.70;98.00;;;;;;5073132;28;20527;-66
2024/03/17 03:18:36;;;;;;;11.23;5.33;;;7.90;98.00;;;;;;5073154;28;20496;-66
2024/03/17 03:21:03;;;;;;;10.50;5.13;;;7.90;98.00;;;;;;5073116;28;20464;-66
2024/03/17 03:23:31;;;;;;;12.00;5.50;;;7.80;98.00;;;;;;5073123;28;20461;-66
2024/03/17 03:25:59;;;;;;;10.50;5.37;;;7.80;98.00;;;;;;5072937;28;20452;-66
2024/03/17 03:28:26;;;;;;;10.47;5.43;;;7.70;98.00;;;;;;5054461;28;20484;-66
2024/03/17 03:30:54;;;;;;;8.40;4.77;;;7.80;98.00;;;;;;5072574;28;20533;-66
2024/03/17 03:33:22;;;;;;;11.97;5.30;;;7.80;98.00;;;;;;5072790;28;20816;-66
2024/03/17 03:35:50;;;;;;;9.93;4.90;;;7.70;98.00;;;;;;5072438;28;20495;-66
2024/03/17 03:38:18;;;;;;;11.67;5.30;;;7.70;98.00;;;;;;5072616;28;21024;-66
2024/03/17 03:40:47;;;;;;;8.63;4.27;;;7.80;98.00;;;;;;5072657;28;20553;-66
2024/03/17 03:43:16;;;;;;;9.00;4.30;;;7.90;98.00;;;;;;5072446;28;20517;-66
2024/03/17 03:45:43;;;;;;;11.07;5.30;;;7.80;98.00;;;;;;5072150;28;20461;-66
2024/03/17 03:48:10;;;;;;;9.63;4.93;;;7.70;98.00;;;;;;5072336;28;20452;-66
2024/03/17 03:50:39;;;;;;;12.27;5.23;;;7.70;98.00;;;;;;5072485;28;20451;-66
2024/03/17 03:53:06;;;;;;;7.40;4.43;;;7.60;98.00;;;;;;5054637;28;20474;-66
2024/03/17 03:55:34;;;;;;;9.43;5.10;;;7.60;98.00;;;;;;5072372;28;20578;-66
2024/03/17 03:58:03;;;;;;;9.10;4.80;;;7.60;98.00;;;;;;5072116;28;20451;-66
2024/03/17 04:00:41;;;;;;;11.20;4.50;;;7.50;98.00;;;;;;5072219;28;20457;-66
2024/03/17 04:03:08;;;;;;;9.17;4.00;;;7.40;98.00;;;;;;5071871;28;21038;-66
2024/03/17 04:05:35;;;;;;;12.20;5.23;;;7.40;98.00;;;;;;5072038;28;20468;-66
2024/03/17 04:08:04;;;;;;;9.13;4.80;;;7.50;98.00;;;;;;5071956;28;20546;-66
2024/03/17 04:10:35;;;;;;;9.00;4.50;;;7.60;98.00;;;;;;5072004;28;20463;-66
2024/03/17 04:13:02;;;;;;;13.50;5.33;;;7.50;98.00;;;;;;5071930;28;20456;-66
2024/03/17 04:15:29;;;;;;;10.37;4.70;;;7.50;98.00;;;;;;5054344;28;20915;-66
2024/03/17 04:17:57;;;;;;;10.10;4.90;;;7.30;98.00;;;;;;5072080;28;20454;-66
2024/03/17 04:20:24;;;;;;;10.50;5.07;;;7.30;98.00;;;;;;5071844;28;20461;-66
2024/03/17 04:22:52;;;;;;;9.33;4.67;;;7.40;98.00;;;;;;5054277;28;20474;-66
2024/03/17 04:25:20;;;;;;;13.90;5.00;;;7.30;98.00;;;;;;5054029;28;20463;-66
2024/03/17 04:27:47;;;;;;;9.57;5.20;;;7.30;98.00;;;;;;5071861;28;20464;-66
2024/03/17 04:30:15;;;;;;;11.40;5.10;;;7.30;98.00;;;;;;5053727;28;20510;-66
2024/03/17 04:32:43;;;;;;;10.23;5.07;;;7.30;98.00;;;;;;5054436;28;20453;-66
2024/03/17 04:35:10;;;;;;;9.07;4.57;;;7.30;98.00;;;;;;5053814;28;20484;-66
2024/03/17 04:37:39;;;;;;;9.47;4.60;;;7.40;98.00;;;;;;5071717;28;20868;-66
2024/03/17 04:40:10;;;;;;;8.90;4.90;;;7.40;98.00;;;;;;5071774;28;20513;-66
2024/03/17 04:42:39;;;;;;;10.37;4.70;;;7.40;98.00;;;;;;5071899;28;20714;-66
2024/03/17 04:45:09;;;;;;;9.10;4.73;;;7.40;98.00;;;;;;5053701;28;20448;-66
2024/03/17 04:47:37;;;;;;;8.27;4.70;;;7.40;98.00;;;;;;5071582;28;20466;-66
2024/03/17 04:50:05;;;;;;;9.23;4.90;;;7.40;98.00;;;;;;5071452;28;20491;-66
2024/03/17 04:52:32;;;;;;;10.83;4.83;;;7.40;98.00;;;;;;5053799;28;20825;-66
2024/03/17 04:54:59;;;;;;;7.60;4.23;;;7.30;98.00;;;;;;5071364;28;20899;-66
2024/03/17 04:57:27;;;;;;;8.20;4.33;;;7.30;98.00;;;;;;5052782;28;20440;-67
2024/03/17 04:59:55;;;;;;;9.47;4.67;;;7.30;98.00;;;;;;5071340;28;20488;-66
2024/03/17 05:02:22;;;;;;;12.10;5.17;;;7.30;98.00;;;;;;5071083;28;20978;-66
2024/03/17 05:04:54;;;;;;;10.10;4.90;;;7.20;98.00;;;;;;5053698;28;20549;-66
2024/03/17 05:07:21;;;;;;;12.47;5.30;;;7.20;98.00;;;;;;5053084;28;20451;-66
2024/03/17 05:09:49;;;;;;;23.23;5.30;;;7.20;98.00;;;;;;5071200;28;20461;-66
2024/03/17 05:12:17;;;;;;;11.27;4.70;;;7.20;98.00;;;;;;5071031;28;20454;-66
2024/03/17 05:14:44;;;;;;;10.93;5.50;;;7.10;98.00;;;;;;5071309;28;20696;-66
2024/03/17 05:17:12;;;;;;;9.63;5.07;;;7.00;98.00;;;;;;5070966;28;20464;-66
2024/03/17 05:19:39;;;;;;;16.27;5.13;;;7.10;98.00;;;;;;5071095;28;20464;-66
2024/03/17 05:22:07;;;;;;;11.87;5.30;;;7.10;98.00;;;;;;5070934;28;20964;-66
2024/03/17 05:25:03;;;;;;;9.03;4.80;;;7.10;98.00;;;;;;5071406;28;20927;-66
2024/03/17 05:27:30;;;;;;;10.23;4.93;;;7.10;98.00;;;;;;5071392;28;20468;-66
2024/03/17 05:29:58;;;;;;;20.13;5.40;;;7.10;98.00;;;;;;5070878;28;20952;-66
2024/03/17 05:32:26;;;;;;;20.00;4.83;;;7.00;98.00;;;;;;5070785;28;20852;-66
2024/03/17 05:34:54;;;;;;;10.90;5.03;;;7.00;98.00;;;;;;5070634;28;20498;-66
2024/03/17 05:37:21;;;;;;;8.67;4.40;;;7.00;98.00;;;;;;5070728;28;20535;-67
2024/03/17 05:39:52;;;;;;;9.20;5.20;;;7.10;98.00;;;;;;5070757;28;20478;-66
2024/03/17 05:42:19;;;;;;;10.53;4.60;;;7.10;98.00;;;;;;5052768;28;20527;-66
2024/03/17 05:44:50;;;;;;;9.23;4.40;;;7.10;98.00;;;;;;5070576;28;20452;-66
2024/03/17 05:47:19;;;;;;;8.93;4.30;;;7.20;98.00;;;;;;5070473;28;20441;-66
2024/03/17 05:49:50;;;;;;;8.30;4.57;;;7.30;98.00;;;;;;5070572;28;20477;-66
2024/03/17 05:52:17;;;;;;;8.73;4.27;;;7.30;98.00;;;;;;5052729;28;20462;-66
2024/03/17 05:54:45;;;;;;;8.30;4.47;;;7.30;98.00;;;;;;5070745;28;20461;-66
2024/03/17 05:57:13;;;;;;;9.93;4.80;;;7.40;98.00;;;;;;5070447;28;20825;-66
2024/03/17 05:59:41;;;;;;;8.50;4.50;;;7.40;98.00;;;;;;5070495;28;20460;-66
2024/03/17 06:02:10;;;;;;;11.20;4.47;;;7.30;98.00;;;;;;5070287;28;20544;-66
2024/03/17 06:04:38;;;;;;;9.43;4.60;;;7.30;98.00;;;;;;5070548;28;20476;-66
2024/03/17 06:07:07;;;;;;;9.47;4.60;;;7.40;98.00;;;;;;5052848;28;20460;-66
2024/03/17 06:09:34;;;;;;;9.33;4.53;;;7.30;98.00;;;;;;5073950;28;20969;-66
2024/03/17 06:12:01;;;;;;;7.63;4.37;;;7.30;98.00;;;;;;5074147;28;20444;-66
2024/03/17 06:14:28;;;;;;;7.50;4.33;;;7.30;98.00;;;;;;5074341;28;20491;-66
2024/03/17 06:16:55;;;;;;;12.10;4.57;;;7.30;98.00;;;;;;5074127;28;20490;-66
2024/03/17 06:19:22;;;;;;;9.17;4.73;;;7.20;98.00;;;;;;5074104;28;21087;-66
2024/03/17 06:21:51;;;;;;;9.37;4.30;;;7.20;98.00;;;;;;5074112;28;20453;-66
2024/03/17 06:24:19;;;;;;;8.37;4.27;;;7.20;98.00;;;;;;5074650;28;20942;-66
2024/03/17 06:26:48;;;;;;;9.07;4.80;;;7.40;98.00;;;;;;5074856;28;20441;-66
2024/03/17 06:29:16;;;;;;;9.80;4.77;;;7.50;98.00;;;;;;5074591;28;20452;-66
2024/03/17 06:31:45;;;;;;;9.20;4.93;;;7.70;98.00;;;;;;5075214;28;20498;-66
2024/03/17 06:34:12;;;;;;;9.17;4.87;;;7.70;98.00;;;;;;5057051;28;20948;-66
2024/03/17 06:36:39;;;;;;;10.47;4.70;;;7.80;98.00;;;;;;5074163;28;20995;-66
2024/03/17 06:39:06;;;;;;;9.37;4.70;;;7.70;98.00;;;;;;5074036;28;20460;-66
2024/03/17 06:41:37;;;;;;;9.60;4.37;;;7.50;98.00;;;;;;5074017;28;20829;-66
2024/03/17 06:44:06;;;;;;;10.40;4.90;;;7.60;98.00;;;;;;5073772;28;20936;-66
2024/03/17 06:46:34;;;;;;;12.43;4.60;;;7.60;98.00;;;;;;5073896;28;20880;-66
2024/03/17 06:49:03;;;;;;;10.60;4.77;;;7.50;98.00;;;;;;5073607;28;20950;-66
2024/03/17 06:51:32;;;;;;;11.37;5.30;;;7.40;98.00;;;;;;5073611;28;20965;-66
2024/03/17 06:53:59;;;;;;;10.40;5.10;;;7.30;98.00;;;;;;5073703;28;20483;-66
2024/03/17 06:56:27;;;;;;;8.20;4.37;;;7.10;98.00;;;;;;5073293;28;20483;-66
2024/03/17 06:58:55;;;;;;;13.73;4.90;;;7.10;98.00;;;;;;5055722;28;20579;-65
2024/03/17 07:01:23;;;;;;;9.63;4.90;;;7.20;98.00;;;;;;5073449;28;20456;-65
2024/03/17 07:03:50;;;;;;;8.83;4.50;;;7.20;98.00;;;;;;5073103;28;20471;-64
2024/03/17 07:06:17;;;;;;;12.50;6.20;;;7.40;98.00;;;;;;5073251;28;20459;-64
2024/03/17 07:08:44;;;;;;;10.13;5.60;;;7.40;98.00;;;;;;5073237;28;20510;-65
2024/03/17 07:11:11;;;;;;;10.03;5.00;;;7.60;98.00;;;;;;5073206;28;20547;-65
2024/03/17 07:13:41;;;;;;;13.20;5.50;;;7.80;98.00;;;;;;5073174;28;20460;-65
2024/03/17 07:16:09;;;;;;;12.23;5.80;;;7.80;98.00;;;;;;5073192;28;20839;-65
2024/03/17 07:18:37;;;;;;;10.00;5.17;;;7.80;98.00;;;;;;5073023;28;20456;-65
2024/03/17 07:21:05;;;;;;;11.07;5.47;;;7.80;98.00;;;;;;5072045;28;20456;-64
2024/03/17 07:23:33;;;;;;;13.50;5.73;;;7.80;98.00;;;;;;5073011;28;20491;-65
2024/03/17 07:26:01;;;;;;;11.27;5.57;;;8.00;98.00;;;;;;5055299;28;20833;-65
2024/03/17 07:28:29;;;;;;;9.77;5.30;;;8.10;98.00;;;;;;5073147;28;20953;-65
2024/03/17 07:30:57;;;;;;;12.23;5.47;;;8.10;98.00;;;;;;5072993;28;20460;-65
2024/03/17 07:33:25;;;;;;;12.97;5.80;;;8.10;98.00;;;;;;5072768;28;20460;-65
2024/03/17 07:35:54;;;;;;;14.17;6.70;;;8.30;98.00;;;;;;5055148;28;20573;-65
2024/03/17 07:38:23;;;;;;;11.07;5.57;;;8.40;98.00;;;;;;5072366;28;20511;-65
2024/03/17 07:40:59;;;;;;;12.10;6.00;;;8.50;98.00;;;;;;5072742;28;20453;-65
2024/03/17 07:43:26;;;;;;;11.47;5.50;;;8.60;98.00;;;;;;5072871;28;20869;-64
2024/03/17 07:46:01;;;;;;;13.30;6.27;;;8.70;98.00;;;;;;5072879;28;20451;-64
2024/03/17 07:48:29;;;;;;;10.37;5.37;;;8.60;98.00;;;;;;5072825;28;20455;-64
2024/03/17 07:50:57;;;;;;;10.83;5.90;;;8.50;98.00;;;;;;5282143;22;20545;-61
2024/03/17 07:53:26;;;;;;;12.60;6.13;;;8.50;98.00;;;;;;5092833;28;20458;-61
2024/03/17 07:56:04;;;;;;;13.73;6.33;;;8.70;98.00;;;;;;5092677;28;20455;-61
2024/03/17 07:58:33;;;;;;;14.27;6.17;;;8.80;98.00;;;;;;5092760;28;20494;-61
2024/03/17 08:01:02;;;;;;;12.37;5.80;;;8.90;98.00;;;;;;5092794;28;20491;-61
2024/03/17 08:03:31;;;;;;;10.57;5.10;;;8.90;98.00;;;;;;5092744;28;20451;-61
2024/03/17 08:05:58;;;;;;;10.97;5.60;;;8.80;98.00;;;;;;5092901;28;20451;-61
2024/03/17 08:08:26;;;;;;;20.07;7.90;;;8.90;98.00;;;;;;5092754;28;20820;-61
2024/03/17 08:10:53;;;;;;;16.10;7.97;;;9.00;98.00;;;;;;5092615;28;20475;-61
2024/03/17 08:13:21;;;;;;;15.10;7.10;;;9.20;98.00;;;;;;5092687;28;20800;-61
2024/03/17 08:15:56;;;;;;;12.97;6.67;;;9.30;98.00;;;;;;5074175;28;20813;-61
2024/03/17 08:18:23;;;;;;;20.53;7.60;;;9.40;98.00;;;;;;5092806;28;20962;-61
2024/03/17 08:20:53;;;;;;;16.43;7.27;;;9.60;98.00;;;;;;5092045;28;20464;-61
2024/03/17 08:23:20;;;;;;;14.13;7.40;;;9.70;98.00;;;;;;5092279;28;20448;-61
2024/03/17 08:25:53;;;;;;;19.90;7.67;;;9.70;98.00;;;;;;5092246;28;20455;-61
2024/03/17 08:28:23;;;;;;;14.13;6.87;;;9.70;98.00;;;;;;5093287;28;20795;-61
2024/03/17 08:30:54;;;;;;;13.67;6.70;;;9.90;98.00;;;;;;5075018;28;20555;-61
2024/03/17 08:33:23;;;;;;;17.90;7.87;;;10.00;98.00;;;;;;5092806;28;21000;-61
2024/03/17 08:35:56;;;;;;;13.63;6.43;;;10.10;98.00;;;;;;5091679;28;20455;-61
2024/03/17 08:38:24;;;;;;;14.87;7.40;;;10.10;98.00;;;;;;5092027;28;20463;-61
2024/03/17 08:40:51;;;;;;;14.53;6.50;;;10.20;98.00;;;;;;5092031;28;20486;-61
2024/03/17 08:43:18;;;;;;;14.47;7.10;;;10.30;98.00;;;;;;5091926;28;20448;-61
2024/03/17 08:45:45;;;;;;;12.50;6.80;;;10.40;98.00;;;;;;5091901;28;20885;-61
2024/03/17 08:48:12;;;;;;;13.07;6.67;;;10.50;98.00;;;;;;5091789;28;20933;-61
2024/03/17 08:50:40;;;;;;;12.63;6.63;;;10.40;98.00;;;;;;5091690;28;20465;-61
2024/03/17 08:53:08;;;;;;;14.97;7.43;;;10.20;98.00;;;;;;5091755;28;20551;-61
2024/03/17 08:55:35;;;;;;;14.80;7.03;;;10.20;98.00;;;;;;5091699;28;20509;-61
2024/03/17 08:58:02;;;;;;;12.33;6.40;;;10.20;98.00;;;;;;5091573;28;20557;-61
2024/03/17 09:00:30;;;;;;;14.40;6.80;;;10.30;98.00;;;;;;5091656;28;20845;-61
2024/03/17 09:02:58;;;;;;;14.23;6.80;;;10.50;98.00;;;;;;5073413;28;20464;-61
2024/03/17 09:05:25;;;;;;;16.80;7.70;;;10.70;98.00;;;;;;5073768;28;20520;-61
2024/03/17 09:07:52;;;;;;;15.60;7.53;;;10.90;98.00;;;;;;5091538;28;20933;-61
2024/03/17 09:10:20;;;;;;;15.20;7.57;;;11.10;98.00;;;;;;5073782;28;20456;-61
2024/03/17 09:12:49;;;;;;;15.07;7.63;;;11.30;98.00;;;;;;5091515;28;20453;-61
2024/03/17 09:15:16;;;;;;;13.87;7.50;;;11.30;98.00;;;;;;5091221;28;21020;-61
2024/03/17 09:17:44;;;;;;;16.07;7.47;;;11.50;98.00;;;;;;5091399;28;20484;-61
2024/03/17 09:20:14;;;;;;;13.63;7.00;;;11.70;98.00;;;;;;5091334;28;20448;-61
2024/03/17 09:22:42;;;;;;;15.57;6.73;;;11.80;98.00;;;;;;5091344;28;20453;-61
2024/03/17 09:25:11;;;;;;;14.40;6.90;;;11.90;98.00;;;;;;5091518;28;20523;-61
2024/03/17 09:27:41;;;;;;;13.27;6.80;;;12.10;98.00;;;;;;5091189;28;20962;-61
2024/03/17 09:30:09;;;;;;;13.37;6.50;;;12.20;98.00;;;;;;5091150;28;20544;-62
2024/03/17 09:32:36;;;;;;;12.30;6.70;;;12.40;98.00;;;;;;5091264;28;20535;-61
2024/03/17 09:35:09;;;;;;;12.10;6.43;;;12.50;98.00;;;;;;5091268;28;20462;-61
2024/03/17 09:37:36;;;;;;;12.17;6.50;;;12.60;98.00;;;;;;5091085;28;20580;-61
2024/03/17 09:40:06;;;;;;;12.70;6.47;;;12.60;98.00;;;;;;5091125;28;20969;-61
2024/03/17 09:42:33;;;;;;;12.60;6.77;;;12.70;98.00;;;;;;5091637;28;20568;-61
2024/03/17 09:45:02;;;;;;;12.63;6.40;;;12.90;98.00;;;;;;5095251;28;20556;-61
2024/03/17 09:47:29;;;;;;;13.43;6.60;;;12.90;98.00;;;;;;5095213;28;20446;-61
2024/03/17 09:49:56;;;;;;;11.77;5.87;;;13.00;98.00;;;;;;5095082;28;20464;-61
2024/03/17 09:52:25;;;;;;;10.83;5.50;;;13.00;98.00;;;;;;5095219;28;20464;-61
2024/03/17 09:54:59;;;;;;;15.10;6.30;;;13.00;98.00;;;;;;5095131;28;20543;-61
2024/03/17 09:57:30;;;;;;;9.30;5.10;;;13.20;98.00;;;;;;5095022;28;20487;-61
2024/03/17 09:59:57;;;;;;;9.70;4.50;;;13.40;98.00;;;;;;5095226;28;20454;-62
2024/03/17 10:02:25;;;;;;;8.40;5.10;;;13.50;98.00;;;;;;5095328;28;20519;-61
2024/03/17 10:04:53;;;;;;;10.37;5.67;;;13.60;98.00;;;;;;5095307;28;20811;-62
2024/03/17 10:07:39;;;;;;;10.77;4.90;;;13.60;98.00;;;;;;5095392;28;20465;-62
2024/03/17 10:10:13;;;;;;;8.07;4.90;;;13.70;98.00;;;;;;5095360;28;20540;-61
2024/03/17 10:12:41;;;;;;;10.03;4.97;;;13.80;98.00;;;;;;5095543;28;20863;-62
2024/03/17 10:15:12;;;;;;;9.67;5.03;;;13.80;98.00;;;;;;5095424;28;20452;-62
2024/03/17 10:17:41;;;;;;;8.57;4.27;;;13.80;98.00;;;;;;5095135;28;20490;-61
2024/03/17 10:20:17;;;;;;;9.00;4.43;;;13.80;98.00;;;;;;5095282;28;20872;-63
2024/03/17 10:23:00;;;;;;;8.83;4.53;;;13.80;98.00;;;;;;5095346;28;20453;-63
2024/03/17 10:25:35;;;;;;;9.90;4.50;;;13.90;98.00;;;;;;5095282;28;20451;-62
2024/03/17 10:28:03;;;;;;;6.43;4.00;;;14.00;98.00;;;;;;5095059;28;20493;-62
2024/03/17 10:30:30;;;;;;;6.57;4.17;;;14.10;98.00;;;;;;5095074;28;20457;-62
2024/03/17 10:33:01;;;;;;;10.43;4.53;;;14.30;98.00;;;;;;5095064;28;20498;-63
2024/03/17 10:35:29;;;;;;;21.40;8.90;;;14.30;98.00;;;;;;5094999;28;20459;-62
2024/03/17 10:38:04;;;;;;;7.63;4.50;;;14.40;98.00;;;;;;5094692;28;20481;-63
2024/03/17 10:40:32;;;;;;;8.40;4.57;;;14.50;98.00;;;;;;5095035;28;20454;-63
2024/03/17 10:43:01;;;;;;;7.70;3.93;;;14.50;98.00;;;;;;5094718;28;20466;-63
2024/03/17 10:45:31;;;;;;;8.03;4.20;;;14.40;98.00;;;;;;5095015;28;20487;-64
2024/03/17 10:48:08;;;;;;;7.53;4.13;;;14.50;98.00;;;;;;5094904;28;20501;-61
2024/03/17 10:50:38;;;;;;;7.30;4.33;;;14.60;98.00;;;;;;5094865;28;20477;-63
2024/03/17 10:53:08;;;;;;;5.43;3.60;;;14.60;98.00;;;;;;5094617;28;20544;-63
2024/03/17 10:55:43;;;;;;;7.50;3.90;;;14.60;98.00;;;;;;5093273;28;20529;-63
2024/03/17 10:58:24;;;;;;;8.27;4.20;;;14.60;98.00;;;;;;5094509;28;20482;-63
2024/03/17 11:00:52;;;;;;;7.40;4.23;;;14.60;98.00;;;;;;5094726;28;20554;-62
2024/03/17 11:03:21;;;;;;;6.30;3.87;;;14.60;98.00;;;;;;5094602;28;20860;-62
2024/03/17 11:05:50;;;;;;;7.43;3.90;;;14.70;98.00;;;;;;5094487;28;20451;-62
2024/03/17 11:08:19;;;;;;;6.53;4.10;;;14.80;98.00;;;;;;5094335;28;20533;-62
2024/03/17 11:10:52;;;;;;;7.70;4.17;;;14.90;98.00;;;;;;5094552;28;20457;-62
2024/03/17 11:13:27;;;;;;;5.67;4.03;;;14.90;98.00;;;;;;5094094;28;20911;-62
2024/03/17 11:15:55;;;;;;;6.30;3.90;;;14.90;98.00;;;;;;5093884;28;20544;-62
2024/03/17 11:18:42;;;;;;;6.50;3.47;;;14.70;98.00;;;;;;5094123;28;20475;-62
2024/03/17 11:21:21;;;;;;;6.83;3.80;;;14.80;98.00;;;;;;5094291;28;20462;-62
2024/03/17 11:24:00;;;;;;;6.27;3.87;;;15.00;98.00;;;;;;5094261;28;20921;-62
2024/03/17 11:26:32;;;;;;;6.40;3.60;;;15.10;98.00;;;;;;5094146;28;20872;-62
2024/03/17 11:29:27;;;;;;;6.60;3.80;;;15.10;98.00;;;;;;5094080;28;20523;-62
2024/03/17 11:31:55;;;;;;;5.60;3.67;;;15.20;98.00;;;;;;5094245;28;20888;-62
2024/03/17 11:34:33;;;;;;;8.47;4.13;;;15.40;98.00;;;;;;5094219;28;20516;-62
2024/03/17 11:37:03;;;;;;;6.27;4.07;;;15.60;98.00;;;;;;5093948;28;21081;-62
2024/03/17 11:39:58;;;;;;;7.63;3.97;;;15.60;98.00;;;;;;5092886;28;20458;-62
2024/03/17 11:42:26;;;;;;;6.70;3.60;;;15.70;98.00;;;;;;5094296;28;20463;-62
2024/03/17 11:45:06;;;;;;;7.20;4.13;;;15.70;98.00;;;;;;5094165;28;20456;-62
2024/03/17 11:47:38;;;;;;;5.57;3.57;;;15.80;98.00;;;;;;5093853;28;20509;-62
2024/03/17 11:50:09;;;;;;;5.13;3.27;;;15.60;98.00;;;;;;5093827;28;20849;-62
2024/03/17 11:52:37;;;;;;;5.13;3.37;;;15.50;98.00;;;;;;5093815;28;20471;-63
2024/03/17 11:55:03;;;;;;;7.03;4.00;;;15.40;98.00;;;;;;5093454;28;20793;-62
2024/03/17 11:57:31;;;;;;;6.37;3.63;;;15.40;98.00;;;;;;5091968;28;20476;-62
2024/03/17 11:59:59;;;;;;;6.50;3.50;;;15.30;98.00;;;;;;5093678;28;20444;-62
2024/03/17 12:02:27;;;;;;;6.53;3.23;;;15.20;98.00;;;;;;5093455;28;20464;-62
2024/03/17 12:04:57;;;;;;;7.10;3.70;;;15.40;98.00;;;;;;5093320;28;20455;-63
2024/03/17 12:07:27;;;;;;;4.73;3.17;;;15.70;98.00;;;;;;5092694;28;20465;-63
2024/03/17 12:09:55;;;;;;;6.03;3.30;;;16.00;98.00;;;;;;5092101;28;20457;-63
2024/03/17 12:12:23;;;;;;;5.37;3.50;;;16.30;98.00;;;;;;5093100;28;20550;-62
2024/03/17 12:14:51;;;;;;;4.97;3.20;;;16.60;98.00;;;;;;5091807;28;20451;-62
2024/03/17 12:17:22;;;;;;;7.33;3.83;;;16.80;98.00;;;;;;5091894;28;21024;-62
2024/03/17 12:19:49;;;;;;;4.43;3.10;;;17.00;98.00;;;;;;5092945;28;20444;-63
2024/03/17 12:22:21;;;;;;;5.33;3.07;;;17.00;98.00;;;;;;5092879;28;21004;-62
2024/03/17 12:24:50;;;;;;;4.87;3.30;;;16.90;98.00;;;;;;5093149;28;20455;-62
2024/03/17 12:27:21;;;;;;;5.20;3.10;;;16.90;98.00;;;;;;5092595;28;20456;-62
2024/03/17 12:29:49;;;;;;;6.23;3.07;;;16.90;98.00;;;;;;5092840;28;20456;-63
2024/03/17 12:32:18;;;;;;;4.13;2.80;;;17.00;98.00;;;;;;5092706;28;20491;-63
2024/03/17 12:34:45;;;;;;;4.60;3.00;;;17.30;98.00;;;;;;5092961;28;20832;-62
2024/03/17 12:37:18;;;;;;;9.43;2.97;;;17.40;98.00;;;;;;5092531;28;20868;-63
2024/03/17 12:39:45;;;;;;;7.27;3.33;;;17.40;98.00;;;;;;5092703;28;20564;-63
2024/03/17 12:42:14;;;;;;;5.80;3.10;;;17.40;98.00;;;;;;5091337;28;20464;-63
2024/03/17 12:44:49;;;;;;;4.13;2.53;;;17.40;98.00;;;;;;5092687;28;20444;-63
2024/03/17 12:47:17;;;;;;;5.77;2.93;;;17.40;98.00;;;;;;5092454;28;20451;-63
2024/03/17 12:49:47;;;;;;;4.53;2.93;;;17.50;98.00;;;;;;5092560;28;20539;-63
2024/03/17 12:52:19;;;;;;;5.27;3.07;;;17.60;98.00;;;;;;5092428;28;20531;-63
2024/03/17 13:00:31;;;;;;;5.60;3.07;;;17.60;98.00;;;;;;5092531;28;20510;-63
2024/03/17 13:00:34;;;;;;;5.07;2.80;;;17.30;98.00;;;;;;5092605;28;20541;-62
2024/03/17 13:03:02;;;;;;;5.23;2.83;;;17.20;98.00;;;;;;5092256;28;20458;-63
2024/03/17 13:05:29;;;;;;;4.53;2.77;;;17.00;98.00;;;;;;5092492;28;20937;-62